Time;durP1;ratioP1;P1;durP2;ratioP2;P2;SDS_P1;SDS_P2;PMS_P1;PMS_P2;Temp;Humidity;BMP_temperature;BMP_pressure;BME280_temperature;BME280_humidity;BME280_pressure;Samples;Min_cycle;Max_cycle;Signal;HPM_P1;HPM_P2
2023/08/02 00:00:46;;;;;;;;;;;17.50;99.90;;;;;;2102815;28;19915;-79
2023/08/02 00:01:48;;;;;;;;;;;17.50;99.90;;;;;;2100329;28;19917;-79
2023/08/02 00:02:48;;;;;;;;;;;17.50;99.90;;;;;;2106102;28;19965;-79
2023/08/02 00:03:49;;;;;;;;;;;17.50;99.90;;;;;;2106936;28;20073;-78
2023/08/02 00:04:49;;;;;;;;;;;17.40;99.90;;;;;;2109089;28;19934;-78
2023/08/02 00:05:57;;;;;;;;;;;17.40;99.90;;;;;;2108353;28;20394;-79
2023/08/02 00:06:57;;;;;;;;;;;17.40;99.90;;;;;;2108055;28;19916;-79
2023/08/02 00:07:58;;;;;;;;;;;17.40;99.90;;;;;;2104349;28;20425;-78
2023/08/02 00:08:58;;;;;;;;;;;17.40;99.90;;;;;;2108190;28;19943;-78
2023/08/02 00:09:59;;;;;;;;;;;17.30;99.90;;;;;;2103854;28;19920;-77
2023/08/02 00:10:59;;;;;;;;;;;17.30;99.90;;;;;;2106880;28;19933;-79
2023/08/02 00:12:00;;;;;;;;;;;17.30;99.90;;;;;;2106332;28;20198;-79
2023/08/02 00:13:00;;;;;;;;;;;17.30;99.90;;;;;;2102857;28;20434;-78
2023/08/02 00:14:01;;;;;;;;;;;17.20;99.90;;;;;;2105454;28;19973;-78
2023/08/02 00:15:01;;;;;;;;;;;17.20;99.90;;;;;;2108138;28;19912;-79
2023/08/02 00:16:02;;;;;;;;;;;17.20;99.90;;;;;;2105089;28;19950;-77
2023/08/02 00:17:03;;;;;;;;;;;17.20;99.90;;;;;;2097756;28;19948;-76
2023/08/02 00:18:03;;;;;;;;;;;17.20;99.90;;;;;;2106110;28;19966;-79
2023/08/02 00:19:04;;;;;;;;;;;17.10;99.90;;;;;;2107477;28;19922;-79
2023/08/02 00:20:04;;;;;;;;;;;17.10;99.90;;;;;;2102698;28;19923;-78
2023/08/02 00:21:05;;;;;;;;;;;17.10;99.90;;;;;;2106470;28;19915;-79
2023/08/02 00:22:05;;;;;;;;;;;17.00;99.90;;;;;;2105029;28;19976;-79
2023/08/02 00:23:06;;;;;;;;;;;17.00;99.90;;;;;;2105154;28;19923;-78
2023/08/02 00:24:07;;;;;;;;;;;17.00;99.90;;;;;;2100394;28;20458;-78
2023/08/02 00:25:08;;;;;;;;;;;17.00;99.90;;;;;;2109671;28;19912;-77
2023/08/02 00:26:08;;;;;;;;;;;16.90;99.90;;;;;;2111042;28;20009;-78
2023/08/02 00:27:09;;;;;;;;;;;16.90;99.90;;;;;;2105654;28;19960;-77
2023/08/02 00:28:09;;;;;;;;;;;16.90;99.90;;;;;;2099850;28;19935;-78
2023/08/02 00:29:10;;;;;;;;;;;16.90;99.90;;;;;;2096803;28;20401;-77
2023/08/02 00:30:10;;;;;;;;;;;16.90;99.90;;;;;;2098127;28;20465;-76
2023/08/02 00:31:11;;;;;;;;;;;16.80;99.90;;;;;;2105897;28;19908;-78
2023/08/02 00:32:11;;;;;;;;;;;16.80;99.90;;;;;;2088544;28;19912;-77
2023/08/02 00:33:12;;;;;;;;;;;16.90;99.90;;;;;;2091941;28;19913;-78
2023/08/02 00:34:13;;;;;;;;;;;16.80;99.90;;;;;;2102863;28;19950;-79
2023/08/02 00:35:14;;;;;;;;;;;16.80;99.90;;;;;;2103349;28;19912;-78
2023/08/02 00:36:15;;;;;;;;;;;16.80;99.90;;;;;;2108222;28;19958;-78
2023/08/02 00:37:15;;;;;;;;;;;16.80;99.90;;;;;;2106088;28;19923;-79
2023/08/02 00:38:16;;;;;;;;;;;16.80;99.90;;;;;;2101902;28;19964;-79
2023/08/02 00:39:18;;;;;;;;;;;16.80;99.90;;;;;;2103844;28;20339;-78
2023/08/02 00:40:23;;;;;;;;;;;16.80;99.90;;;;;;2099703;28;19944;-80
2023/08/02 00:41:25;;;;;;;;;;;16.80;99.90;;;;;;2107004;28;20438;-78
2023/08/02 00:42:25;;;;;;;;;;;16.80;99.90;;;;;;2106078;28;19919;-78
2023/08/02 00:43:26;;;;;;;;;;;16.80;99.90;;;;;;2108852;28;19916;-79
2023/08/02 00:44:26;;;;;;;;;;;16.70;99.90;;;;;;2101416;28;20176;-79
2023/08/02 00:45:27;;;;;;;;;;;16.80;99.90;;;;;;2115869;27;19998;-78
2023/08/02 00:46:28;;;;;;;;;;;16.80;99.90;;;;;;2115917;27;19915;-77
2023/08/02 00:47:29;;;;;;;;;;;16.70;99.90;;;;;;2115832;27;19926;-77
2023/08/02 00:48:30;;;;;;;;;;;16.70;99.90;;;;;;2114350;27;19912;-77
2023/08/02 00:49:30;;;;;;;;;;;16.70;99.90;;;;;;2105847;28;20306;-78
2023/08/02 00:50:33;;;;;;;;;;;16.70;99.90;;;;;;2109541;28;20263;-78
2023/08/02 00:51:33;;;;;;;;;;;16.60;99.90;;;;;;2105116;28;19916;-78
2023/08/02 00:52:34;;;;;;;;;;;16.60;99.90;;;;;;2106909;28;19943;-78
2023/08/02 00:53:35;;;;;;;;;;;16.60;99.90;;;;;;2107501;28;19918;-78
2023/08/02 00:54:35;;;;;;;;;;;16.60;99.90;;;;;;2105265;28;19916;-78
2023/08/02 00:55:36;;;;;;;;;;;16.60;99.90;;;;;;2105982;28;20299;-80
2023/08/02 00:56:37;;;;;;;;;;;16.50;99.90;;;;;;2111462;28;19960;-79
2023/08/02 00:57:38;;;;;;;;;;;16.50;99.90;;;;;;2108440;28;19912;-79
2023/08/02 00:58:38;;;;;;;;;;;16.50;99.90;;;;;;2095061;28;19927;-79
2023/08/02 00:59:42;;;;;;;;;;;16.50;99.90;;;;;;2106641;28;19912;-79
2023/08/02 01:00:42;;;;;;;;;;;16.50;99.90;;;;;;2102614;28;19912;-78
2023/08/02 01:01:43;;;;;;;;;;;16.50;99.90;;;;;;2104470;28;20346;-77
2023/08/02 01:02:44;;;;;;;;;;;16.50;99.90;;;;;;2102358;28;20322;-77
2023/08/02 01:03:47;;;;;;;;;;;16.50;99.90;;;;;;2101166;28;19926;-78
2023/08/02 01:04:48;;;;;;;;;;;16.50;99.90;;;;;;2105517;28;19912;-79
2023/08/02 01:05:55;;;;;;;;;;;16.50;99.90;;;;;;2106297;28;19999;-78
2023/08/02 01:07:10;;;;;;;;;;;16.50;99.90;;;;;;2108444;28;19937;-78
2023/08/02 01:08:13;;;;;;;;;;;16.50;99.90;;;;;;2095025;28;19920;-78
2023/08/02 01:09:21;;;;;;;;;;;16.50;99.90;;;;;;2105477;28;19968;-78
2023/08/02 01:10:25;;;;;;;;;;;16.50;99.90;;;;;;2102499;28;20341;-79
2023/08/02 01:11:34;;;;;;;;;;;16.50;99.90;;;;;;2098833;28;19920;-78
2023/08/02 01:12:35;;;;;;;;;;;16.50;99.90;;;;;;2102964;28;19916;-78
2023/08/02 01:13:39;;;;;;;;;;;16.50;99.90;;;;;;2111745;28;19923;-78
2023/08/02 01:14:43;;;;;;;;;;;16.50;99.90;;;;;;2102768;28;20357;-79
2023/08/02 01:15:44;;;;;;;;;;;16.50;99.90;;;;;;2094985;28;19924;-77
2023/08/02 01:16:45;;;;;;;;;;;16.50;99.90;;;;;;2099935;28;19912;-78
2023/08/02 01:17:46;;;;;;;;;;;16.40;99.90;;;;;;2105929;28;20337;-77
2023/08/02 01:18:47;;;;;;;;;;;16.40;99.90;;;;;;2109027;28;19920;-78
2023/08/02 01:19:47;;;;;;;;;;;16.40;99.90;;;;;;2108051;28;20398;-78
2023/08/02 01:20:48;;;;;;;;;;;16.40;99.90;;;;;;2105279;28;20037;-77
2023/08/02 01:21:48;;;;;;;;;;;16.40;99.90;;;;;;2103126;28;19916;-78
2023/08/02 01:22:49;;;;;;;;;;;16.40;99.90;;;;;;2110928;28;19982;-78
2023/08/02 01:23:50;;;;;;;;;;;16.40;99.90;;;;;;2108564;28;19915;-78
2023/08/02 01:24:50;;;;;;;;;;;16.30;99.90;;;;;;2109095;28;19915;-78
2023/08/02 01:25:51;;;;;;;;;;;16.30;99.90;;;;;;2106055;28;19912;-78
2023/08/02 01:26:52;;;;;;;;;;;16.30;99.90;;;;;;2109633;28;20331;-77
2023/08/02 01:27:59;;;;;;;;;;;16.20;99.90;;;;;;2107517;28;19912;-79
2023/08/02 01:29:02;;;;;;;;;;;16.20;99.90;;;;;;2100779;28;19912;-78
2023/08/02 01:30:03;;;;;;;;;;;16.20;99.90;;;;;;2111263;28;19912;-78
2023/08/02 01:31:04;;;;;;;;;;;16.20;99.90;;;;;;2101671;28;20357;-77
2023/08/02 01:32:05;;;;;;;;;;;16.20;99.90;;;;;;2106153;28;19916;-78
2023/08/02 01:33:05;;;;;;;;;;;16.10;99.90;;;;;;2098491;28;20385;-77
2023/08/02 01:34:06;;;;;;;;;;;16.20;99.90;;;;;;2104857;28;19916;-78
2023/08/02 01:35:08;;;;;;;;;;;16.10;99.90;;;;;;2108834;28;20432;-79
2023/08/02 01:36:08;;;;;;;;;;;16.10;99.90;;;;;;2103117;28;20441;-79
2023/08/02 01:37:09;;;;;;;;;;;16.10;99.90;;;;;;2103023;28;19971;-78
2023/08/02 01:38:10;;;;;;;;;;;16.10;99.90;;;;;;2109062;28;20066;-78
2023/08/02 01:39:11;;;;;;;;;;;16.00;99.90;;;;;;2103051;28;20435;-78
2023/08/02 01:40:13;;;;;;;;;;;16.00;99.90;;;;;;2106173;28;19972;-76
2023/08/02 01:41:14;;;;;;;;;;;16.00;99.90;;;;;;2106107;28;19986;-77
2023/08/02 01:42:16;;;;;;;;;;;16.00;99.90;;;;;;2102058;28;19916;-73
2023/08/02 01:43:16;;;;;;;;;;;16.00;99.90;;;;;;2108476;28;19912;-78
2023/08/02 01:44:17;;;;;;;;;;;16.10;99.90;;;;;;2107615;28;19955;-78
2023/08/02 01:45:17;;;;;;;;;;;16.00;99.90;;;;;;2106093;28;19916;-79
2023/08/02 01:46:19;;;;;;;;;;;16.00;99.90;;;;;;2103776;28;20016;-78
2023/08/02 01:47:19;;;;;;;;;;;16.00;99.90;;;;;;2099298;28;19916;-79
2023/08/02 01:48:22;;;;;;;;;;;16.00;99.90;;;;;;2087904;28;19921;-78
2023/08/02 01:49:22;;;;;;;;;;;15.90;99.90;;;;;;2091549;28;19912;-78
2023/08/02 01:50:23;;;;;;;;;;;15.90;99.90;;;;;;2101262;28;20006;-78
2023/08/02 01:51:24;;;;;;;;;;;15.90;99.90;;;;;;2107898;28;19916;-77
2023/08/02 01:52:25;;;;;;;;;;;15.90;99.90;;;;;;2105593;28;20327;-77
2023/08/02 01:53:25;;;;;;;;;;;15.90;99.90;;;;;;2100375;28;19970;-79
2023/08/02 01:54:26;;;;;;;;;;;15.90;99.90;;;;;;2103375;28;19912;-76
2023/08/02 01:55:26;;;;;;;;;;;15.90;99.90;;;;;;2100029;28;19913;-77
2023/08/02 01:56:27;;;;;;;;;;;15.90;99.90;;;;;;2097763;28;19916;-77
2023/08/02 01:57:27;;;;;;;;;;;15.90;99.90;;;;;;2104306;28;20398;-79
2023/08/02 01:58:29;;;;;;;;;;;15.90;99.90;;;;;;2098595;28;19918;-79
2023/08/02 01:59:30;;;;;;;;;;;15.90;99.90;;;;;;2088789;28;19955;-78
2023/08/02 02:00:30;;;;;;;;;;;15.90;99.90;;;;;;2095430;28;20874;-78
2023/08/02 02:01:31;;;;;;;;;;;15.80;99.90;;;;;;2089200;28;19944;-78
2023/08/02 02:02:31;;;;;;;;;;;15.90;99.90;;;;;;2096236;28;20002;-79
2023/08/02 02:03:32;;;;;;;;;;;15.90;99.90;;;;;;2093768;28;19913;-79
2023/08/02 02:04:32;;;;;;;;;;;15.80;99.90;;;;;;2098619;28;19916;-78
2023/08/02 02:05:34;;;;;;;;;;;15.90;99.90;;;;;;2103083;28;19971;-78
2023/08/02 02:06:35;;;;;;;;;;;15.90;99.90;;;;;;2106495;28;19920;-78
2023/08/02 02:07:36;;;;;;;;;;;15.90;99.90;;;;;;2106077;28;19952;-76
2023/08/02 02:08:37;;;;;;;;;;;15.90;99.90;;;;;;2108938;28;19970;-78
2023/08/02 02:09:38;;;;;;;;;;;15.90;99.90;;;;;;2101083;28;19912;-78
2023/08/02 02:10:38;;;;;;;;;;;15.90;99.90;;;;;;2101150;28;19912;-78
2023/08/02 02:11:39;;;;;;;;;;;16.00;99.90;;;;;;2106017;28;20002;-77
2023/08/02 02:12:39;;;;;;;;;;;16.00;99.90;;;;;;2098834;28;19992;-79
2023/08/02 02:13:40;;;;;;;;;;;16.00;99.90;;;;;;2106989;28;19945;-79
2023/08/02 02:14:40;;;;;;;;;;;16.00;99.90;;;;;;2096233;28;19927;-79
2023/08/02 02:15:41;;;;;;;;;;;16.00;99.90;;;;;;2109807;28;19922;-78
2023/08/02 02:16:41;;;;;;;;;;;16.10;99.90;;;;;;2101118;28;20011;-78
2023/08/02 02:17:43;;;;;;;;;;;16.10;99.90;;;;;;2107564;28;19930;-78
2023/08/02 02:18:43;;;;;;;;;;;16.10;99.90;;;;;;2109550;28;20014;-79
2023/08/02 02:19:44;;;;;;;;;;;16.10;99.90;;;;;;2096682;28;19916;-78
2023/08/02 02:20:44;;;;;;;;;;;16.10;99.90;;;;;;2099843;28;20413;-78
2023/08/02 02:21:45;;;;;;;;;;;16.10;99.90;;;;;;2102693;28;19919;-78
2023/08/02 02:22:46;;;;;;;;;;;16.10;99.90;;;;;;2111754;28;20407;-76
2023/08/02 02:23:47;;;;;;;;;;;16.20;99.90;;;;;;2097014;28;19920;-77
2023/08/02 02:24:48;;;;;;;;;;;16.10;99.90;;;;;;2106419;28;19916;-77
2023/08/02 02:25:48;;;;;;;;;;;16.10;99.90;;;;;;2103258;28;19908;-79
2023/08/02 02:26:49;;;;;;;;;;;16.10;99.90;;;;;;2103438;28;20393;-78
2023/08/02 02:27:49;;;;;;;;;;;16.10;99.90;;;;;;2106352;28;19916;-78
2023/08/02 02:28:50;;;;;;;;;;;16.20;99.90;;;;;;2102746;28;19916;-77
2023/08/02 02:29:50;;;;;;;;;;;16.20;99.90;;;;;;2106745;28;19915;-78
2023/08/02 02:30:51;;;;;;;;;;;16.20;99.90;;;;;;2107023;28;20115;-78
2023/08/02 02:31:52;;;;;;;;;;;16.20;99.90;;;;;;2098797;28;19975;-78
2023/08/02 02:32:52;;;;;;;;;;;16.20;99.90;;;;;;2097807;28;19921;-76
2023/08/02 02:33:53;;;;;;;;;;;16.20;99.90;;;;;;2098464;28;19921;-78
2023/08/02 02:34:53;;;;;;;;;;;16.20;99.90;;;;;;2097837;28;19946;-77
2023/08/02 02:35:54;;;;;;;;;;;16.20;99.90;;;;;;2105081;28;20516;-78
2023/08/02 02:36:54;;;;;;;;;;;16.20;99.90;;;;;;2108328;28;19916;-77
2023/08/02 02:37:55;;;;;;;;;;;16.20;99.90;;;;;;2103112;28;19916;-78
2023/08/02 02:38:55;;;;;;;;;;;16.20;99.90;;;;;;2105059;28;19957;-77
2023/08/02 02:39:56;;;;;;;;;;;16.20;99.90;;;;;;2108544;28;19961;-77
2023/08/02 02:40:57;;;;;;;;;;;16.20;99.90;;;;;;2105302;28;19951;-78
2023/08/02 02:41:57;;;;;;;;;;;16.20;99.90;;;;;;2099527;28;19991;-78
2023/08/02 02:42:58;;;;;;;;;;;16.20;99.90;;;;;;2103933;28;20155;-77
2023/08/02 02:43:58;;;;;;;;;;;16.20;99.90;;;;;;2104615;28;19916;-77
2023/08/02 02:45:00;;;;;;;;;;;16.20;99.90;;;;;;2107152;28;19916;-77
2023/08/02 02:46:01;;;;;;;;;;;16.20;99.90;;;;;;2105866;28;19919;-77
2023/08/02 02:47:01;;;;;;;;;;;16.20;99.90;;;;;;2096363;28;20463;-77
2023/08/02 02:48:02;;;;;;;;;;;16.20;99.90;;;;;;2096249;28;19920;-77
2023/08/02 02:49:02;;;;;;;;;;;16.20;99.90;;;;;;2111442;28;19916;-77
2023/08/02 02:50:03;;;;;;;;;;;16.20;99.90;;;;;;2108668;28;20488;-77
2023/08/02 02:51:04;;;;;;;;;;;16.20;99.90;;;;;;2101158;28;20404;-76
2023/08/02 02:52:04;;;;;;;;;;;16.20;99.90;;;;;;2103408;28;20336;-77
2023/08/02 02:53:05;;;;;;;;;;;16.20;99.90;;;;;;2107627;28;19911;-78
2023/08/02 02:54:05;;;;;;;;;;;16.20;99.90;;;;;;2104569;28;20466;-78
2023/08/02 02:55:07;;;;;;;;;;;16.20;99.90;;;;;;2110206;28;19912;-78
2023/08/02 02:56:07;;;;;;;;;;;16.20;99.90;;;;;;2104971;28;19927;-79
2023/08/02 02:57:09;;;;;;;;;;;16.20;99.90;;;;;;2106471;28;19995;-78
2023/08/02 02:58:10;;;;;;;;;;;16.20;99.90;;;;;;2107761;28;19912;-79
2023/08/02 02:59:10;;;;;;;;;;;16.20;99.90;;;;;;2106744;28;20082;-78
2023/08/02 03:00:11;;;;;;;;;;;16.20;99.90;;;;;;2103303;28;19998;-79
2023/08/02 03:01:11;;;;;;;;;;;16.20;99.90;;;;;;2107932;28;19919;-78
2023/08/02 03:02:12;;;;;;;;;;;16.30;99.90;;;;;;2109159;28;20401;-77
2023/08/02 03:03:12;;;;;;;;;;;16.30;99.90;;;;;;2104461;28;20280;-78
2023/08/02 03:04:13;;;;;;;;;;;16.30;99.90;;;;;;2105135;28;20363;-78
2023/08/02 03:05:13;;;;;;;;;;;16.30;99.90;;;;;;2106103;28;20189;-78
2023/08/02 03:06:14;;;;;;;;;;;16.30;99.90;;;;;;2109636;28;19923;-78
2023/08/02 03:07:15;;;;;;;;;;;16.30;99.90;;;;;;2106602;28;19912;-77
2023/08/02 03:08:16;;;;;;;;;;;16.40;99.90;;;;;;2095379;28;19916;-77
2023/08/02 03:09:16;;;;;;;;;;;16.40;99.90;;;;;;2099979;28;19912;-76
2023/08/02 03:10:17;;;;;;;;;;;16.40;99.90;;;;;;2101513;28;20302;-77
2023/08/02 03:11:17;;;;;;;;;;;16.40;99.90;;;;;;2106618;28;19953;-76
2023/08/02 03:12:18;;;;;;;;;;;16.40;99.90;;;;;;2098233;28;19965;-76
2023/08/02 03:13:18;;;;;;;;;;;16.40;99.90;;;;;;2102606;28;19923;-76
2023/08/02 03:14:19;;;;;;;;;;;16.40;99.90;;;;;;2102518;28;19931;-76
2023/08/02 03:15:19;;;;;;;;;;;16.50;99.90;;;;;;2106177;28;19915;-78
2023/08/02 03:16:20;;;;;;;;;;;16.50;99.90;;;;;;2107442;28;19924;-78
2023/08/02 03:17:20;;;;;;;;;;;16.50;99.90;;;;;;2100956;28;20338;-77
2023/08/02 03:18:20;;;;;;;;;;;16.40;99.90;;;;;;2100276;28;20024;-77
2023/08/02 03:19:21;;;;;;;;;;;16.50;99.90;;;;;;2095620;28;20617;-76
2023/08/02 03:20:21;;;;;;;;;;;16.50;99.90;;;;;;2105533;28;20405;-77
2023/08/02 03:21:22;;;;;;;;;;;16.40;99.90;;;;;;2102987;28;19915;-76
2023/08/02 03:22:22;;;;;;;;;;;16.50;99.90;;;;;;2102684;28;19922;-77
2023/08/02 03:23:23;;;;;;;;;;;16.50;99.90;;;;;;2103665;28;19912;-76
2023/08/02 03:24:23;;;;;;;;;;;16.50;99.90;;;;;;2106485;28;19935;-76
2023/08/02 03:25:24;;;;;;;;;;;16.50;99.90;;;;;;2099970;28;19963;-77
2023/08/02 03:26:24;;;;;;;;;;;16.50;99.90;;;;;;2103833;28;20375;-76
2023/08/02 03:27:25;;;;;;;;;;;16.50;99.90;;;;;;2104074;28;19919;-76
2023/08/02 03:28:25;;;;;;;;;;;16.50;99.90;;;;;;2104638;28;19926;-76
2023/08/02 03:29:26;;;;;;;;;;;16.50;99.90;;;;;;2105253;28;19923;-76
2023/08/02 03:30:26;;;;;;;;;;;16.50;99.90;;;;;;2102782;28;19943;-76
2023/08/02 03:31:27;;;;;;;;;;;16.50;99.90;;;;;;2103373;28;19912;-77
2023/08/02 03:32:28;;;;;;;;;;;16.50;99.90;;;;;;2103215;28;20327;-76
2023/08/02 03:33:29;;;;;;;;;;;16.50;99.90;;;;;;2104519;28;19916;-76
2023/08/02 03:34:30;;;;;;;;;;;16.50;99.90;;;;;;2096380;28;19916;-76
2023/08/02 03:35:31;;;;;;;;;;;16.50;99.90;;;;;;2099651;28;20338;-76
2023/08/02 03:36:31;;;;;;;;;;;16.50;99.90;;;;;;2104234;28;19916;-76
2023/08/02 03:37:32;;;;;;;;;;;16.50;99.90;;;;;;2106313;28;19969;-77
2023/08/02 03:38:32;;;;;;;;;;;16.50;99.90;;;;;;2102558;28;20002;-76
2023/08/02 03:39:32;;;;;;;;;;;16.40;99.90;;;;;;2102598;28;19912;-76
2023/08/02 03:40:33;;;;;;;;;;;16.50;99.90;;;;;;2102414;28;20002;-76
2023/08/02 03:41:34;;;;;;;;;;;16.50;99.90;;;;;;2105650;28;20002;-77
2023/08/02 03:42:34;;;;;;;;;;;16.50;99.90;;;;;;2100203;28;20844;-76
2023/08/02 03:43:35;;;;;;;;;;;16.50;99.90;;;;;;2104605;28;19920;-75
2023/08/02 03:44:35;;;;;;;;;;;16.50;99.90;;;;;;2100711;28;19920;-76
2023/08/02 03:45:36;;;;;;;;;;;16.50;99.90;;;;;;2100464;28;19912;-76
2023/08/02 03:46:36;;;;;;;;;;;16.40;99.90;;;;;;2105583;28;19954;-76
2023/08/02 03:47:36;;;;;;;;;;;16.50;99.90;;;;;;2101769;28;19959;-76
2023/08/02 03:48:37;;;;;;;;;;;16.40;99.90;;;;;;2099950;28;19957;-76
2023/08/02 03:49:37;;;;;;;;;;;16.40;99.90;;;;;;2099652;28;20337;-76
2023/08/02 03:50:38;;;;;;;;;;;16.30;99.90;;;;;;2098733;28;20003;-74
2023/08/02 03:51:39;;;;;;;;;;;16.30;99.90;;;;;;2096729;28;19992;-76
2023/08/02 03:52:39;;;;;;;;;;;16.30;99.90;;;;;;2097266;28;20379;-69
2023/08/02 03:53:40;;;;;;;;;;;16.30;99.90;;;;;;2106369;28;20532;-75
2023/08/02 03:54:40;;;;;;;;;;;16.30;99.90;;;;;;2103924;28;20399;-68
2023/08/02 03:55:41;;;;;;;;;;;16.20;99.90;;;;;;2104593;28;19963;-68
2023/08/02 03:56:41;;;;;;;;;;;16.20;99.90;;;;;;2104620;28;19916;-68
2023/08/02 03:57:41;;;;;;;;;;;16.20;99.90;;;;;;2106519;28;19922;-68
2023/08/02 03:58:42;;;;;;;;;;;16.20;99.90;;;;;;2104686;28;19916;-67
2023/08/02 03:59:42;;;;;;;;;;;16.10;99.90;;;;;;2106008;28;20374;-68
2023/08/02 04:00:43;;;;;;;;;;;16.10;99.90;;;;;;2105231;28;19934;-68
2023/08/02 04:01:43;;;;;;;;;;;16.10;99.90;;;;;;2106087;28;20430;-67
2023/08/02 04:02:44;;;;;;;;;;;16.20;99.90;;;;;;2104492;28;20408;-67
2023/08/02 04:03:44;;;;;;;;;;;16.20;99.90;;;;;;2104580;28;19916;-67
2023/08/02 04:04:45;;;;;;;;;;;16.20;99.90;;;;;;2106754;28;19969;-67
2023/08/02 04:05:45;;;;;;;;;;;16.20;99.90;;;;;;2105199;28;19916;-67
2023/08/02 04:06:46;;;;;;;;;;;16.20;99.90;;;;;;2096118;28;19924;-67
2023/08/02 04:07:46;;;;;;;;;;;16.20;99.90;;;;;;2096207;28;20334;-70
2023/08/02 04:08:47;;;;;;;;;;;16.20;99.90;;;;;;2100491;28;20344;-68
2023/08/02 04:09:47;;;;;;;;;;;16.20;99.90;;;;;;2104742;28;20417;-68
2023/08/02 04:10:48;;;;;;;;;;;16.20;99.90;;;;;;2105840;28;20033;-68
2023/08/02 04:11:49;;;;;;;;;;;16.30;99.90;;;;;;2103277;28;20017;-68
2023/08/02 04:12:52;;;;;;;;;;;16.30;99.90;;;;;;2102023;28;20394;-68
2023/08/02 04:13:53;;;;;;;;;;;16.40;99.90;;;;;;2102128;28;19920;-68
2023/08/02 04:14:54;;;;;;;;;;;16.40;99.90;;;;;;2104285;28;19932;-67
2023/08/02 04:15:54;;;;;;;;;;;16.50;99.90;;;;;;2106844;28;19920;-68
2023/08/02 04:16:55;;;;;;;;;;;16.50;99.90;;;;;;2100586;28;19916;-68
2023/08/02 04:17:56;;;;;;;;;;;16.60;99.90;;;;;;2101582;28;19912;-68
2023/08/02 04:18:56;;;;;;;;;;;16.60;99.90;;;;;;2105791;28;19919;-68
2023/08/02 04:19:58;;;;;;;;;;;16.60;99.90;;;;;;2106246;28;19943;-68
2023/08/02 04:20:59;;;;;;;;;;;16.60;99.90;;;;;;2105748;28;19915;-67
2023/08/02 04:22:00;;;;;;;;;;;16.70;99.90;;;;;;2103881;28;20199;-68
2023/08/02 04:23:00;;;;;;;;;;;16.70;99.90;;;;;;2103424;28;19919;-67
2023/08/02 04:24:01;;;;;;;;;;;16.70;99.90;;;;;;2106164;28;20164;-68
2023/08/02 04:25:03;;;;;;;;;;;16.70;99.90;;;;;;2105738;28;20394;-67
2023/08/02 04:26:10;;;;;;;;;;;16.70;99.90;;;;;;2101634;28;20014;-67
2023/08/02 04:27:10;;;;;;;;;;;16.70;99.90;;;;;;2101110;28;19924;-67
2023/08/02 04:28:11;;;;;;;;;;;16.70;99.90;;;;;;2101649;28;20295;-67
2023/08/02 04:29:11;;;;;;;;;;;16.70;99.90;;;;;;2102466;28;19995;-67
2023/08/02 04:30:12;;;;;;;;;;;16.70;99.90;;;;;;2100855;28;20336;-67
2023/08/02 04:31:13;;;;;;;;;;;16.80;99.90;;;;;;2103430;28;19926;-69
2023/08/02 04:32:14;;;;;;;;;;;16.80;99.90;;;;;;2103405;28;19919;-68
2023/08/02 04:33:14;;;;;;;;;;;16.80;99.90;;;;;;2100095;28;20290;-68
2023/08/02 04:34:15;;;;;;;;;;;16.90;99.90;;;;;;2100611;28;20027;-68
2023/08/02 04:35:15;;;;;;;;;;;17.20;99.90;;;;;;2103414;28;20390;-66
2023/08/02 04:36:16;;;;;;;;;;;17.50;99.90;;;;;;2100683;28;19927;-67
2023/08/02 04:37:16;;;;;;;;;;;17.90;99.90;;;;;;2099127;28;19966;-67
2023/08/02 04:38:17;;;;;;;;;;;18.30;99.90;;;;;;2102670;28;19980;-67
2023/08/02 04:39:17;;;;;;;;;;;18.80;99.90;;;;;;2104810;28;19915;-68
2023/08/02 04:40:18;;;;;;;;;;;19.30;99.90;;;;;;2105718;28;20297;-68
2023/08/02 04:41:18;;;;;;;;;;;19.80;99.90;;;;;;2101465;28;20035;-67
2023/08/02 04:42:19;;;;;;;;;;;20.20;99.90;;;;;;2104493;28;20059;-68
2023/08/02 04:43:19;;;;;;;;;;;20.60;99.90;;;;;;2104175;28;20310;-67
2023/08/02 04:44:20;;;;;;;;;;;21.00;99.90;;;;;;2106933;28;20108;-67
2023/08/02 04:45:20;;;;;;;;;;;21.50;99.90;;;;;;2105156;28;20078;-68
2023/08/02 04:46:22;;;;;;;;;;;21.70;99.90;;;;;;2101010;28;20167;-67
2023/08/02 04:47:22;;;;;;;;;;;22.00;99.90;;;;;;2105286;28;20275;-67
2023/08/02 04:48:22;;;;;;;;;;;21.90;99.90;;;;;;2105256;28;19923;-67
2023/08/02 04:49:23;;;;;;;;;;;21.80;99.90;;;;;;2103626;28;20183;-68
2023/08/02 04:50:24;;;;;;;;;;;21.70;99.90;;;;;;2105391;28;19916;-69
2023/08/02 04:51:25;;;;;;;;;;;21.50;99.90;;;;;;2103609;28;19912;-68
2023/08/02 04:52:25;;;;;;;;;;;21.20;99.90;;;;;;2103560;28;19916;-69
2023/08/02 04:53:26;;;;;;;;;;;20.80;99.90;;;;;;2106684;28;19998;-69
2023/08/02 04:54:26;;;;;;;;;;;20.50;99.90;;;;;;2102589;28;19919;-69
2023/08/02 04:55:27;;;;;;;;;;;20.30;99.90;;;;;;2101668;28;20361;-67
2023/08/02 04:56:27;;;;;;;;;;;20.10;99.90;;;;;;2105439;28;19920;-68
2023/08/02 04:57:28;;;;;;;;;;;19.90;99.90;;;;;;2106477;28;19922;-68
2023/08/02 04:58:28;;;;;;;;;;;19.80;99.90;;;;;;2104572;28;19924;-67
2023/08/02 04:59:29;;;;;;;;;;;19.60;99.90;;;;;;2101703;28;19916;-68
2023/08/02 05:00:29;;;;;;;;;;;19.50;99.90;;;;;;2102066;28;19916;-67
2023/08/02 05:01:30;;;;;;;;;;;19.50;99.90;;;;;;2103836;28;20404;-67
2023/08/02 05:02:36;;;;;;;;;;;19.30;99.90;;;;;;2104616;28;19960;-68
2023/08/02 05:03:36;;;;;;;;;;;19.30;99.90;;;;;;2104801;28;19946;-68
2023/08/02 05:04:39;;;;;;;;;;;19.20;99.90;;;;;;2104068;28;19916;-68
2023/08/02 05:05:39;;;;;;;;;;;19.20;99.90;;;;;;2106168;28;20411;-67
2023/08/02 05:06:40;;;;;;;;;;;19.10;99.90;;;;;;2104896;28;20571;-68
2023/08/02 05:07:40;;;;;;;;;;;19.00;99.90;;;;;;2101807;28;20506;-68
2023/08/02 05:08:41;;;;;;;;;;;18.90;99.90;;;;;;2105172;28;20381;-68
2023/08/02 05:09:42;;;;;;;;;;;18.90;99.90;;;;;;2102514;28;19916;-68
2023/08/02 05:10:42;;;;;;;;;;;18.80;99.90;;;;;;2102525;28;19912;-68
2023/08/02 05:11:43;;;;;;;;;;;18.70;99.90;;;;;;2099723;28;19916;-67
2023/08/02 05:12:43;;;;;;;;;;;18.70;99.90;;;;;;2103663;28;19916;-68
2023/08/02 05:13:44;;;;;;;;;;;18.60;99.90;;;;;;2103806;28;19928;-68
2023/08/02 05:14:44;;;;;;;;;;;18.60;99.90;;;;;;2104769;28;19952;-68
2023/08/02 05:15:45;;;;;;;;;;;18.50;99.90;;;;;;2106614;28;19912;-68
2023/08/02 05:16:46;;;;;;;;;;;18.50;99.90;;;;;;2096141;28;20556;-68
2023/08/02 05:17:47;;;;;;;;;;;18.40;99.90;;;;;;2101296;28;19994;-68
2023/08/02 05:18:48;;;;;;;;;;;18.40;99.90;;;;;;2106073;28;19965;-68
2023/08/02 05:19:48;;;;;;;;;;;18.40;99.90;;;;;;2091752;28;20391;-68
2023/08/02 05:20:49;;;;;;;;;;;18.40;99.90;;;;;;2103610;28;20062;-68
2023/08/02 05:21:49;;;;;;;;;;;18.40;99.90;;;;;;2103755;28;19916;-68
2023/08/02 05:22:50;;;;;;;;;;;18.40;99.90;;;;;;2104309;28;19989;-67
2023/08/02 05:23:50;;;;;;;;;;;18.40;99.90;;;;;;2106647;28;19974;-67
2023/08/02 05:24:52;;;;;;;;;;;18.40;99.90;;;;;;2105294;28;19990;-69
2023/08/02 05:25:55;;;;;;;;;;;18.30;99.90;;;;;;2101859;28;19912;-68
2023/08/02 05:26:55;;;;;;;;;;;18.30;99.90;;;;;;2102609;28;19920;-67
2023/08/02 05:27:56;;;;;;;;;;;18.30;99.90;;;;;;2106746;28;20435;-67
2023/08/02 05:28:56;;;;;;;;;;;18.20;99.90;;;;;;2103638;28;19987;-67
2023/08/02 05:29:57;;;;;;;;;;;18.10;99.90;;;;;;2094717;28;19921;-67
2023/08/02 05:30:57;;;;;;;;;;;18.10;99.90;;;;;;2089847;28;19913;-68
2023/08/02 05:31:58;;;;;;;;;;;18.10;99.90;;;;;;2097019;28;19938;-66
2023/08/02 05:32:58;;;;;;;;;;;18.10;99.90;;;;;;2106073;28;20647;-68
2023/08/02 05:33:59;;;;;;;;;;;18.10;99.90;;;;;;2105205;28;20306;-66
2023/08/02 05:34:59;;;;;;;;;;;18.10;99.90;;;;;;2104245;28;20478;-66
2023/08/02 05:36:00;;;;;;;;;;;18.10;99.90;;;;;;2104191;28;19924;-67
2023/08/02 05:37:01;;;;;;;;;;;18.10;99.90;;;;;;2105588;28;20132;-67
2023/08/02 05:38:01;;;;;;;;;;;18.10;99.90;;;;;;2100177;28;19924;-67
2023/08/02 05:39:03;;;;;;;;;;;18.10;99.90;;;;;;2101861;28;19908;-67
2023/08/02 05:40:03;;;;;;;;;;;18.10;99.90;;;;;;2101534;28;19912;-67
2023/08/02 05:41:04;;;;;;;;;;;18.10;99.90;;;;;;2103331;28;19924;-67
2023/08/02 05:42:04;;;;;;;;;;;18.10;99.90;;;;;;2106156;28;20035;-67
2023/08/02 05:43:06;;;;;;;;;;;18.00;99.90;;;;;;2105346;28;20465;-67
2023/08/02 05:44:06;;;;;;;;;;;18.10;99.90;;;;;;2105036;28;19912;-68
2023/08/02 05:45:07;;;;;;;;;;;18.10;99.90;;;;;;2105117;28;20002;-67
2023/08/02 05:46:07;;;;;;;;;;;18.10;99.90;;;;;;2106426;28;19912;-67
2023/08/02 05:47:08;;;;;;;;;;;18.10;99.90;;;;;;2103975;28;19916;-67
2023/08/02 05:48:09;;;;;;;;;;;18.00;99.90;;;;;;2103709;28;19912;-67
2023/08/02 05:49:09;;;;;;;;;;;18.00;99.90;;;;;;2103855;28;19919;-67
2023/08/02 05:50:10;;;;;;;;;;;18.00;99.90;;;;;;2106075;28;19912;-67
2023/08/02 05:51:10;;;;;;;;;;;18.00;99.90;;;;;;2104195;28;19916;-67
2023/08/02 05:52:11;;;;;;;;;;;17.90;99.90;;;;;;2096444;28;19924;-67
2023/08/02 05:53:11;;;;;;;;;;;17.90;99.90;;;;;;2091853;28;19913;-67
2023/08/02 05:54:12;;;;;;;;;;;17.80;99.90;;;;;;2090553;28;19909;-68